Apple Creek, MO

3:57 PM CDT on May 29, 2015 (GMT -0500)
Northwest Jackson | | Change Station
CLOSE
Current Station
Personal Weather Station
Location: Jackson, MO
Elevation: 465 ft
Nearby Weather Stations

Elev 465 ft 37.39 °N, 89.68 °W | Updated 8 seconds ago

Partly Cloudy
Partly Cloudy
83.5 °F
Feels Like 82 °F
N
4.9
Wind Variable Wind from North
Gusts 4.9 mph

Today
High -- | Low -- °F
--% Chance of Precip.
Yesterday
High -- | Low -- °F
Precip. -- in
5:40 AM 8:12 PM
Waxing Gibbous, 86% visible
Pressure 29.99 in
Visibility 10.0 miles
Clouds Few 3700 ft
Heat Index 82 °F
Dew Point 54 °F
Humidity 37%
Rainfall 0.00 in
Snow Depth Not available.
UV 7 out of 12
Pollen 7.50 out of 12
Air Quality Not available.
Flu Activity Sporadic
METAR KCGI 292053Z 17010KT 10SM FEW037 28/20 A2999 RMK AO2 SLP153 T02830200 56022

More Conditions Fewer Conditions

Pressure 29.99 in
Visibility 10.0 miles
Clouds Few 3700 ft
Heat Index 82 °F
Dew Point 54 °F
Humidity 37%
Rainfall 0.00 in
Snow Depth Not available.
UV 7 out of 12
Pollen 7.50 out of 12
Air Quality Not available.
Flu Activity Sporadic
METAR KCGI 292053Z 17010KT 10SM FEW037 28/20 A2999 RMK AO2 SLP153 T02830200 56022

More Conditions Fewer Conditions

10-Day Weather Forecast

Almanac

Astronomy

May. 29, 2015 Rise Set
Actual Time
Civil Twilight
Nautical Twilight
Astronomical Twilight
Moon
Length of Visible Light
Length of Day
Tomorrow will be .
, % of the Moon is Illuminated

Today's Extremes

State Highs State Lows

Community

WunderPhotos

Upload Photos

1,825,351 photos uploaded!

WunderBlogs® & News

Nearby

Air Quality

  Air Quality AQ Index Pollutant
Not available.

Snow Depth

Station Depth Elevation

Earthquake Activity

City Distance Mag. Time & Date
Minimum magnitude displayed is 2.5.

Coastal Water Temperatures

Place Temperature

Stations

Nearby Weather Stations

Station Location Temp. Windchill Dew Point Humidity Wind Precip. Elev Updated Type